Time,TemperatureF,DewpointF,PressureIn,WindDirection,WindDirectionDegrees,WindSpeedMPH,WindSpeedGustMPH,Humidity,HourlyPrecipIn,Conditions,Clouds,dailyrainin,SoftwareType,DateUTC
2013-03-29 00:03:00,36.1,28.0,30.45,ESE,110,0.0,0.0,71,0.00,,,0.00,weatherlink.com 1.10,2013-03-29 04:03:00,
2013-03-29 00:18:00,34.7,28.0,30.45,ESE,108,0.0,0.0,76,0.00,,,0.00,weatherlink.com 1.10,2013-03-29 04:18:00,
2013-03-29 00:33:00,33.5,27.0,30.45,ESE,109,0.0,0.0,78,0.00,,,0.00,weatherlink.com 1.10,2013-03-29 04:33:00,
2013-03-29 00:48:00,33.5,27.0,30.46,ESE,110,0.0,0.0,78,0.00,,,0.00,weatherlink.com 1.10,2013-03-29 04:48:00,
2013-03-29 01:03:00,32.9,27.0,30.45,ESE,110,0.0,0.0,79,0.00,,,0.00,weatherlink.com 1.10,2013-03-29 05:03:00,
2013-03-29 01:18:00,32.3,26.0,30.45,ESE,110,0.0,0.0,79,0.00,,,0.00,weatherlink.com 1.10,2013-03-29 05:18:00,
2013-03-29 01:33:00,31.5,26.0,30.45,ESE,110,0.0,0.0,81,0.00,,,0.00,weatherlink.com 1.10,2013-03-29 05:33:00,
2013-03-29 01:48:00,31.0,27.0,30.46,ESE,110,0.0,0.0,84,0.00,,,0.00,weatherlink.com 1.10,2013-03-29 05:48:00,
2013-03-29 02:03:00,31.7,27.0,30.45,ESE,109,0.0,0.0,82,0.00,,,0.00,weatherlink.com 1.10,2013-03-29 06:03:00,
2013-03-29 02:18:00,30.7,26.0,30.45,ESE,109,0.0,0.0,84,0.00,,,0.00,weatherlink.com 1.10,2013-03-29 06:18:00,
2013-03-29 02:33:00,29.9,26.0,30.45,ESE,110,0.0,0.0,85,0.00,,,0.00,weatherlink.com 1.10,2013-03-29 06:33:00,
2013-03-29 02:48:00,30.0,26.0,30.46,ESE,108,0.0,0.0,85,0.00,,,0.00,weatherlink.com 1.10,2013-03-29 06:48:00,
2013-03-29 03:03:00,29.8,26.0,30.45,ESE,109,0.0,0.0,85,0.00,,,0.00,weatherlink.com 1.10,2013-03-29 07:03:00,
2013-03-29 03:18:00,29.3,26.0,30.45,ESE,108,0.0,0.0,86,0.00,,,0.00,weatherlink.com 1.10,2013-03-29 07:18:00,
2013-03-29 03:33:00,28.9,26.0,30.45,ESE,108,0.0,0.0,87,0.00,,,0.00,weatherlink.com 1.10,2013-03-29 07:33:00,
2013-03-29 03:48:00,29.4,26.0,30.45,ESE,107,0.0,0.0,86,0.00,,,0.00,weatherlink.com 1.10,2013-03-29 07:48:00,
2013-03-29 04:03:00,28.8,25.0,30.45,ESE,107,0.0,0.0,87,0.00,,,0.00,weatherlink.com 1.10,2013-03-29 08:03:00,
2013-03-29 04:18:00,28.2,25.0,30.45,ESE,107,0.0,0.0,88,0.00,,,0.00,weatherlink.com 1.10,2013-03-29 08:18:00,
2013-03-29 04:33:00,28.1,25.0,30.45,ESE,107,0.0,0.0,88,0.00,,,0.00,weatherlink.com 1.10,2013-03-29 08:33:00,
2013-03-29 04:48:00,27.4,24.0,30.45,ESE,108,0.0,0.0,88,0.00,,,0.00,weatherlink.com 1.10,2013-03-29 08:48:00,
2013-03-29 05:03:00,27.2,24.0,30.45,ESE,107,0.0,0.0,89,0.00,,,0.00,weatherlink.com 1.10,2013-03-29 09:03:00,
2013-03-29 05:18:00,27.8,25.0,30.44,ESE,108,0.0,0.0,89,0.00,,,0.00,weatherlink.com 1.10,2013-03-29 09:18:00,
2013-03-29 05:33:00,27.4,24.0,30.45,ESE,108,0.0,0.0,88,0.00,,,0.00,weatherlink.com 1.10,2013-03-29 09:33:00,
2013-03-29 05:48:00,26.9,24.0,30.45,ESE,107,0.0,0.0,89,0.00,,,0.00,weatherlink.com 1.10,2013-03-29 09:48:00,
2013-03-29 06:03:00,27.1,24.0,30.45,ESE,108,0.0,0.0,89,0.00,,,0.00,weatherlink.com 1.10,2013-03-29 10:03:00,
2013-03-29 06:18:00,28.0,25.0,30.45,East,92,0.0,0.0,89,0.00,,,0.00,weatherlink.com 1.10,2013-03-29 10:18:00,
2013-03-29 06:33:00,28.1,25.0,30.45,East,91,0.0,0.0,89,0.00,,,0.00,weatherlink.com 1.10,2013-03-29 10:33:00,
2013-03-29 06:48:00,28.5,26.0,30.45,East,91,0.0,0.0,89,0.00,,,0.00,weatherlink.com 1.10,2013-03-29 10:48:00,
2013-03-29 07:03:00,28.6,26.0,30.45,East,91,0.0,0.0,89,0.00,,,0.00,weatherlink.com 1.10,2013-03-29 11:03:00,
2013-03-29 07:18:00,28.1,25.0,30.45,East,91,0.0,0.0,89,0.00,,,0.00,weatherlink.com 1.10,2013-03-29 11:18:00,
2013-03-29 07:33:00,27.8,25.0,30.46,East,91,0.0,0.0,89,0.00,,,0.00,weatherlink.com 1.10,2013-03-29 11:33:00,
2013-03-29 07:48:00,27.2,24.0,30.46,East,91,0.0,0.0,89,0.00,,,0.00,weatherlink.com 1.10,2013-03-29 11:48:00,
2013-03-29 08:03:00,27.8,25.0,30.46,East,91,0.0,0.0,89,0.00,,,0.00,weatherlink.com 1.10,2013-03-29 12:03:00,
2013-03-29 08:18:00,28.2,25.0,30.46,East,92,0.0,0.0,89,0.00,,,0.00,weatherlink.com 1.10,2013-03-29 12:18:00,
2013-03-29 08:33:00,28.7,26.0,30.47,East,91,0.0,0.0,89,0.00,,,0.00,weatherlink.com 1.10,2013-03-29 12:33:00,
2013-03-29 08:48:00,30.1,27.0,30.48,East,91,0.0,0.0,89,0.00,,,0.00,weatherlink.com 1.10,2013-03-29 12:48:00,
2013-03-29 09:04:00,31.7,28.0,30.48,East,93,0.0,0.0,87,0.00,,,0.00,weatherlink.com 1.10,2013-03-29 13:04:00,
2013-03-29 09:19:00,33.2,30.0,30.48,East,91,0.0,0.0,86,0.00,,,0.00,weatherlink.com 1.10,2013-03-29 13:19:00,
2013-03-29 09:34:00,34.8,30.0,30.48,East,94,0.0,0.0,84,0.00,,,0.00,weatherlink.com 1.10,2013-03-29 13:34:00,
2013-03-29 09:49:00,35.9,30.0,30.48,North,8,0.0,0.0,80,0.00,,,0.00,weatherlink.com 1.10,2013-03-29 13:49:00,
2013-03-29 10:04:00,37.2,32.0,30.47,West,269,0.0,0.0,80,0.00,,,0.00,weatherlink.com 1.10,2013-03-29 14:04:00,
2013-03-29 10:19:00,39.3,32.0,30.47,West,268,0.0,0.0,76,0.00,,,0.00,weatherlink.com 1.10,2013-03-29 14:19:00,
2013-03-29 10:34:00,40.1,32.0,30.48,East,87,0.0,0.0,73,0.00,,,0.00,weatherlink.com 1.10,2013-03-29 14:34:00,
2013-03-29 10:49:00,41.0,33.0,30.48,East,88,0.0,0.0,72,0.00,,,0.00,weatherlink.com 1.10,2013-03-29 14:49:00,
2013-03-29 11:04:00,41.6,33.0,30.47,East,88,0.0,0.0,71,0.00,,,0.00,weatherlink.com 1.10,2013-03-29 15:04:00,
2013-03-29 11:19:00,42.0,33.0,30.48,West,278,0.0,0.0,70,0.00,,,0.00,weatherlink.com 1.10,2013-03-29 15:19:00,
2013-03-29 11:34:00,43.1,34.0,30.47,North,6,0.0,0.0,69,0.00,,,0.00,weatherlink.com 1.10,2013-03-29 15:34:00,
2013-03-29 11:49:00,43.8,33.0,30.48,WNW,301,0.0,0.0,66,0.00,,,0.00,weatherlink.com 1.10,2013-03-29 15:49:00,
2013-03-29 12:04:00,45.5,34.0,30.47,West,281,0.0,0.0,64,0.00,,,0.00,weatherlink.com 1.10,2013-03-29 16:04:00,
2013-03-29 12:19:00,47.5,30.0,30.46,NNE,12,0.0,0.0,51,0.00,,,0.00,weatherlink.com 1.10,2013-03-29 16:19:00,
2013-03-29 12:34:00,50.4,30.0,30.46,ESE,114,0.0,2.0,45,0.00,,,0.00,weatherlink.com 1.10,2013-03-29 16:34:00,
2013-03-29 12:49:00,54.5,30.0,30.45,East,97,0.0,3.0,39,0.00,,,0.00,weatherlink.com 1.10,2013-03-29 16:49:00,
2013-03-29 13:04:00,54.7,29.0,30.45,SSW,201,0.0,2.0,38,0.00,,,0.00,weatherlink.com 1.10,2013-03-29 17:04:00,
2013-03-29 13:19:00,53.5,30.0,30.44,WSW,240,0.0,0.0,41,0.00,,,0.00,weatherlink.com 1.10,2013-03-29 17:19:00,
2013-03-29 13:35:00,52.5,29.0,30.44,WNW,287,0.0,0.0,41,0.00,,,0.00,weatherlink.com 1.10,2013-03-29 17:35:00,
2013-03-29 13:50:00,51.6,28.0,30.44,NE,38,0.0,1.0,40,0.00,,,0.00,weatherlink.com 1.10,2013-03-29 17:50:00,
2013-03-29 14:05:00,51.1,30.0,30.44,NNW,338,0.0,0.0,45,0.00,,,0.00,weatherlink.com 1.10,2013-03-29 18:05:00,
2013-03-29 14:20:00,51.6,30.0,30.43,ENE,76,0.0,0.0,44,0.00,,,0.00,weatherlink.com 1.10,2013-03-29 18:20:00,
2013-03-29 14:35:00,53.1,32.0,30.42,West,259,0.0,2.0,44,0.00,,,0.00,weatherlink.com 1.10,2013-03-29 18:35:00,
2013-03-29 14:50:00,54.4,32.0,30.41,West,266,0.0,0.0,42,0.00,,,0.00,weatherlink.com 1.10,2013-03-29 18:50:00,
2013-03-29 15:05:00,55.6,31.0,30.41,East,94,0.0,1.0,39,0.00,,,0.00,weatherlink.com 1.10,2013-03-29 19:05:00,
2013-03-29 15:20:00,57.2,33.0,30.39,WNW,300,0.0,1.0,40,0.00,,,0.00,weatherlink.com 1.10,2013-03-29 19:20:00,
2013-03-29 15:35:00,59.1,32.0,30.39,West,278,0.0,0.0,36,0.00,,,0.00,weatherlink.com 1.10,2013-03-29 19:35:00,
2013-03-29 15:50:00,57.8,30.0,30.39,WSW,255,0.0,5.0,35,0.00,,,0.00,weatherlink.com 1.10,2013-03-29 19:50:00,
2013-03-29 16:05:00,56.9,31.0,30.38,WSW,253,0.0,5.0,37,0.00,,,0.00,weatherlink.com 1.10,2013-03-29 20:05:00,
2013-03-29 16:20:00,55.5,29.0,30.38,ESE,119,0.0,0.0,37,0.00,,,0.00,weatherlink.com 1.10,2013-03-29 20:20:00,
2013-03-29 16:35:00,55.1,31.0,30.38,NNE,18,0.0,0.0,40,0.00,,,0.00,weatherlink.com 1.10,2013-03-29 20:35:00,
2013-03-29 16:50:00,54.4,31.0,30.38,SE,130,0.0,0.0,41,0.00,,,0.00,weatherlink.com 1.10,2013-03-29 20:50:00,
2013-03-29 17:05:00,53.8,32.0,30.38,SW,219,0.0,0.0,43,0.00,,,0.00,weatherlink.com 1.10,2013-03-29 21:05:00,
2013-03-29 17:20:00,53.8,31.0,30.38,WSW,252,0.0,0.0,42,0.00,,,0.00,weatherlink.com 1.10,2013-03-29 21:20:00,
2013-03-29 17:35:00,53.9,30.0,30.38,WSW,257,0.0,0.0,41,0.00,,,0.00,weatherlink.com 1.10,2013-03-29 21:35:00,
2013-03-29 17:50:00,53.6,31.0,30.37,ESE,104,0.0,0.0,42,0.00,,,0.00,weatherlink.com 1.10,2013-03-29 21:50:00,
2013-03-29 18:05:00,53.0,33.0,30.37,East,88,0.0,0.0,46,0.00,,,0.00,weatherlink.com 1.10,2013-03-29 22:05:00,
2013-03-29 18:20:00,52.7,34.0,30.37,North,6,0.0,0.0,49,0.00,,,0.00,weatherlink.com 1.10,2013-03-29 22:20:00,
2013-03-29 18:35:00,51.8,33.0,30.38,SW,224,0.0,0.0,49,0.00,,,0.00,weatherlink.com 1.10,2013-03-29 22:35:00,
2013-03-29 18:50:00,51.4,33.0,30.37,SW,224,0.0,0.0,50,0.00,,,0.00,weatherlink.com 1.10,2013-03-29 22:50:00,
2013-03-29 19:05:00,51.1,34.0,30.37,SW,224,0.0,0.0,53,0.00,,,0.00,weatherlink.com 1.10,2013-03-29 23:05:00,
2013-03-29 19:20:00,50.4,34.0,30.36,SW,226,0.0,0.0,53,0.00,,,0.00,weatherlink.com 1.10,2013-03-29 23:20:00,
2013-03-29 19:35:00,49.9,33.0,30.36,SW,224,0.0,0.0,52,0.00,,,0.00,weatherlink.com 1.10,2013-03-29 23:35:00,
2013-03-29 19:50:00,49.4,32.0,30.36,SSE,166,0.0,0.0,52,0.00,,,0.00,weatherlink.com 1.10,2013-03-29 23:50:00,
2013-03-29 20:05:00,49.0,32.0,30.36,SSE,166,0.0,0.0,53,0.00,,,0.00,weatherlink.com 1.10,2013-03-30 00:05:00,
2013-03-29 20:20:00,48.7,33.0,30.36,SSE,166,0.0,0.0,54,0.00,,,0.00,weatherlink.com 1.10,2013-03-30 00:20:00,
2013-03-29 20:35:00,48.2,33.0,30.36,SSE,166,0.0,0.0,55,0.00,,,0.00,weatherlink.com 1.10,2013-03-30 00:35:00,
2013-03-29 20:50:00,47.6,33.0,30.36,SSE,166,0.0,0.0,57,0.00,,,0.00,weatherlink.com 1.10,2013-03-30 00:50:00,
2013-03-29 21:05:00,47.2,34.0,30.36,SSE,166,0.0,0.0,60,0.00,,,0.00,weatherlink.com 1.10,2013-03-30 01:05:00,
2013-03-29 21:20:00,47.0,33.0,30.36,SSE,166,0.0,0.0,59,0.00,,,0.00,weatherlink.com 1.10,2013-03-30 01:20:00,
2013-03-29 21:35:00,46.9,33.0,30.36,SSE,166,0.0,0.0,58,0.00,,,0.00,weatherlink.com 1.10,2013-03-30 01:35:00,
2013-03-29 21:50:00,46.5,34.0,30.36,SSE,166,0.0,0.0,61,0.00,,,0.00,weatherlink.com 1.10,2013-03-30 01:50:00,
2013-03-29 22:05:00,46.0,33.0,30.36,SSE,166,0.0,0.0,62,0.00,,,0.00,weatherlink.com 1.10,2013-03-30 02:05:00,
2013-03-29 22:20:00,45.8,34.0,30.36,SSE,166,0.0,0.0,64,0.00,,,0.00,weatherlink.com 1.10,2013-03-30 02:20:00,
2013-03-29 22:35:00,45.8,34.0,30.37,SSE,166,0.0,0.0,63,0.00,,,0.00,weatherlink.com 1.10,2013-03-30 02:35:00,
2013-03-29 22:50:00,45.5,34.0,30.37,SSE,166,0.0,0.0,65,0.00,,,0.00,weatherlink.com 1.10,2013-03-30 02:50:00,
2013-03-29 23:05:00,45.4,35.0,30.37,SSE,166,0.0,0.0,66,0.00,,,0.00,weatherlink.com 1.10,2013-03-30 03:05:00,
2013-03-29 23:20:00,45.6,34.0,30.37,SSE,166,0.0,0.0,65,0.00,,,0.00,weatherlink.com 1.10,2013-03-30 03:20:00,
2013-03-29 23:35:00,45.1,36.0,30.36,SSE,166,0.0,0.0,71,0.00,,,0.00,weatherlink.com 1.10,2013-03-30 03:35:00,
2013-03-29 23:50:00,44.4,37.0,30.35,SSE,167,0.0,0.0,74,0.00,,,0.00,weatherlink.com 1.10,2013-03-30 03:50:00,